Time;durP1;ratioP1;P1;durP2;ratioP2;P2;SDS_P1;SDS_P2;PMS_P1;PMS_P2;Temp;Humidity;BMP_temperature;BMP_pressure;BME280_temperature;BME280_humidity;BME280_pressure;Samples;Min_cycle;Max_cycle;Signal;HPM_P1;HPM_P2
2024/01/29 00:01:12;;;;;;;3.47;3.13;;;;;;;;;;4986030;28;20553;-78
2024/01/29 00:03:38;;;;;;;6.83;3.10;;;;;;;;;;5000075;28;20494;-78
2024/01/29 00:06:06;;;;;;;3.87;3.00;;;;;;;;;;4996983;28;20557;-85
2024/01/29 00:08:33;;;;;;;4.07;3.33;;;;;;;;;;4992725;28;20469;-78
2024/01/29 00:11:01;;;;;;;4.22;3.78;;;;;;;;;;4982997;28;20474;-78
2024/01/29 00:13:27;;;;;;;3.97;3.37;;;;;;;;;;4982406;28;20223;-78
2024/01/29 00:15:53;;;;;;;4.95;3.00;;;;;;;;;;4985028;28;20497;-80
2024/01/29 00:18:20;;;;;;;6.10;3.13;;;;;;;;;;4994894;28;20234;-80
2024/01/29 00:20:46;;;;;;;3.73;3.23;;;;;;;;;;4995138;28;20461;-78
2024/01/29 00:23:14;;;;;;;5.80;3.10;;;;;;;;;;5006404;28;20502;-78
2024/01/29 00:25:40;;;;;;;2.90;2.60;;;;;;;;;;5013759;28;20825;-77
2024/01/29 00:28:08;;;;;;;4.40;3.10;;;;;;;;;;5017671;28;20490;-78
2024/01/29 00:30:34;;;;;;;5.30;3.05;;;;;;;;;;4991764;28;20562;-78
2024/01/29 00:33:01;;;;;;;5.07;3.07;;;;;;;;;;5010625;28;20318;-78
2024/01/29 00:35:27;;;;;;;5.30;3.30;;;;;;;;;;4998593;28;20464;-78
2024/01/29 00:37:54;;;;;;;4.10;2.77;;;;;;;;;;4999679;28;20466;-83
2024/01/29 00:40:20;;;;;;;4.53;3.00;;;;;;;;;;4996183;28;20473;-78
2024/01/29 00:42:47;;;;;;;4.83;2.90;;;;;;;;;;4980487;28;20492;-78
2024/01/29 00:45:16;;;;;;;3.20;2.90;;;;;;;;;;5018182;28;20466;-81
2024/01/29 00:47:42;;;;;;;5.00;3.10;;;;;;;;;;4976156;28;20475;-78
2024/01/29 00:50:09;;;;;;;3.60;2.90;;;;;;;;;;5020014;28;20468;-78
2024/01/29 00:52:35;;;;;;;4.75;4.18;;;;;;;;;;5007568;28;20219;-78
2024/01/29 00:55:02;;;;;;;4.90;3.53;;;;;;;;;;5035540;28;20692;-78
2024/01/29 00:57:29;;;;;;;4.10;3.10;;;;;;;;;;5027032;28;20476;-78
2024/01/29 00:59:56;;;;;;;5.83;3.07;;;;;;;;;;4986998;28;20892;-79
2024/01/29 01:02:24;;;;;;;3.30;3.00;;;;;;;;;;5016043;28;20479;-78
2024/01/29 01:04:51;;;;;;;4.20;3.00;;;;;;;;;;5010124;28;20505;-78
2024/01/29 01:07:17;;;;;;;3.40;2.93;;;;;;;;;;5008108;28;20233;-78
2024/01/29 01:09:44;;;;;;;3.47;2.77;;;;;;;;;;5016095;28;20571;-79
2024/01/29 01:12:10;;;;;;;4.97;2.97;;;;;;;;;;4997260;28;20862;-78
2024/01/29 01:14:37;;;;;;;3.23;2.93;;;;;;;;;;5019405;28;20560;-78
2024/01/29 01:17:08;;;;;;;7.30;3.10;;;;;;;;;;4989713;28;20576;-78
2024/01/29 01:19:37;;;;;;;4.93;2.93;;;;;;;;;;4979808;28;20477;-82
2024/01/29 01:22:04;;;;;;;4.43;3.30;;;;;;;;;;4992027;28;20470;-78
2024/01/29 01:24:30;;;;;;;5.53;3.20;;;;;;;;;;4988633;28;20900;-78
2024/01/29 01:26:57;;;;;;;5.00;4.20;;;;;;;;;;4997462;28;20471;-78
2024/01/29 01:29:23;;;;;;;4.28;3.00;;;;;;;;;;5009426;28;20464;-78
2024/01/29 01:31:49;;;;;;;3.23;2.87;;;;;;;;;;5020144;28;20232;-78
2024/01/29 01:34:16;;;;;;;3.10;2.80;;;;;;;;;;5017462;28;20494;-77
2024/01/29 01:36:44;;;;;;;5.37;3.47;;;;;;;;;;5005775;28;20466;-80
2024/01/29 01:39:10;;;;;;;5.10;3.13;;;;;;;;;;5001314;28;20930;-80
2024/01/29 01:41:36;;;;;;;7.63;3.37;;;;;;;;;;5014439;28;20839;-78
2024/01/29 01:44:03;;;;;;;5.40;3.20;;;;;;;;;;4978740;28;21012;-78
2024/01/29 01:46:29;;;;;;;4.67;2.93;;;;;;;;;;5008277;28;20473;-77
2024/01/29 01:48:57;;;;;;;4.80;3.50;;;;;;;;;;4997871;28;20475;-78
2024/01/29 01:51:24;;;;;;;3.27;2.97;;;;;;;;;;4986345;28;20490;-82
2024/01/29 01:53:54;;;;;;;5.07;3.73;;;;;;;;;;4999389;28;20841;-80
2024/01/29 01:56:21;;;;;;;4.63;2.83;;;;;;;;;;4999517;28;20480;-80
2024/01/29 01:58:48;;;;;;;5.50;3.10;;;;;;;;;;5000648;28;20566;-78
2024/01/29 02:01:14;;;;;;;2.87;2.50;;;;;;;;;;5011137;28;20980;-78
2024/01/29 02:03:42;;;;;;;3.97;3.05;;;;;;;;;;5013534;28;20496;-78
2024/01/29 02:06:09;;;;;;;3.97;3.07;;;;;;;;;;5000741;28;20289;-78
2024/01/29 02:08:36;;;;;;;4.57;2.60;;;;;;;;;;5013574;28;20493;-78
2024/01/29 02:11:04;;;;;;;4.83;2.80;;;;;;;;;;4977766;28;21401;-79
2024/01/29 02:13:31;;;;;;;3.20;2.90;;;;;;;;;;5003653;28;20566;-81
2024/01/29 02:15:59;;;;;;;6.07;3.03;;;;;;;;;;5014996;28;20467;-78
2024/01/29 02:18:25;;;;;;;4.37;3.13;;;;;;;;;;4997129;28;20476;-78
2024/01/29 02:20:52;;;;;;;2.93;2.63;;;;;;;;;;4986168;28;20484;-79
2024/01/29 02:23:19;;;;;;;6.30;2.63;;;;;;;;;;5004928;28;21083;-78
2024/01/29 02:25:46;;;;;;;6.17;3.17;;;;;;;;;;5003448;28;20487;-78
2024/01/29 02:28:14;;;;;;;3.30;3.00;;;;;;;;;;5003477;28;20465;-79
2024/01/29 02:30:42;;;;;;;4.77;2.83;;;;;;;;;;5021399;28;20467;-78
2024/01/29 02:33:08;;;;;;;8.10;3.03;;;;;;;;;;5023229;28;20476;-78
2024/01/29 02:35:35;;;;;;;3.63;3.03;;;;;;;;;;5030667;28;20217;-80
2024/01/29 02:38:03;;;;;;;3.50;2.83;;;;;;;;;;5019698;28;20464;-78
2024/01/29 02:40:31;;;;;;;2.63;2.40;;;;;;;;;;5022049;28;20468;-79
2024/01/29 02:42:58;;;;;;;5.90;3.43;;;;;;;;;;5014459;28;20469;-78
2024/01/29 02:45:24;;;;;;;4.40;2.70;;;;;;;;;;5011640;28;20472;-80
2024/01/29 02:47:51;;;;;;;4.97;2.30;;;;;;;;;;5011411;28;20559;-78
2024/01/29 02:50:17;;;;;;;4.50;3.60;;;;;;;;;;5031887;28;20475;-78
2024/01/29 02:52:44;;;;;;;3.13;2.83;;;;;;;;;;5009344;28;20471;-80
2024/01/29 02:55:11;;;;;;;5.30;3.10;;;;;;;;;;5016877;28;20470;-78
2024/01/29 02:57:39;;;;;;;4.73;3.77;;;;;;;;;;5017517;28;21803;-78
2024/01/29 03:00:06;;;;;;;5.23;3.13;;;;;;;;;;5015917;28;20471;-79
2024/01/29 03:02:32;;;;;;;3.80;2.83;;;;;;;;;;5016511;28;20566;-80
2024/01/29 03:04:58;;;;;;;6.30;3.13;;;;;;;;;;5011075;28;20502;-78
2024/01/29 03:07:25;;;;;;;3.10;2.80;;;;;;;;;;4982008;28;20462;-81
2024/01/29 03:09:51;;;;;;;5.10;2.83;;;;;;;;;;5019301;28;20974;-78
2024/01/29 03:12:19;;;;;;;2.93;2.73;;;;;;;;;;4995153;28;20482;-80
2024/01/29 03:14:47;;;;;;;11.50;3.60;;;;;;;;;;5022522;28;20496;-78
2024/01/29 03:17:13;;;;;;;5.50;2.87;;;;;;;;;;5022828;28;20478;-79
2024/01/29 03:19:40;;;;;;;3.50;2.53;;;;;;;;;;5017318;28;20977;-79
2024/01/29 03:22:06;;;;;;;3.27;2.30;;;;;;;;;;5005384;28;20498;-80
2024/01/29 03:24:33;;;;;;;3.53;2.83;;;;;;;;;;5001867;28;20924;-77
2024/01/29 03:26:59;;;;;;;4.67;2.70;;;;;;;;;;5018838;28;20838;-78
2024/01/29 03:29:25;;;;;;;3.57;2.90;;;;;;;;;;5019249;28;20486;-78
2024/01/29 03:31:55;;;;;;;4.10;3.27;;;;;;;;;;5017002;28;20576;-78
2024/01/29 03:34:21;;;;;;;5.40;3.05;;;;;;;;;;5022913;28;20487;-80
2024/01/29 03:36:47;;;;;;;5.35;3.80;;;;;;;;;;4993857;28;20800;-79
2024/01/29 03:39:14;;;;;;;4.37;3.00;;;;;;;;;;5012489;28;20230;-78
2024/01/29 03:41:41;;;;;;;3.60;3.03;;;;;;;;;;5005235;28;20556;-78
2024/01/29 03:44:07;;;;;;;3.40;3.00;;;;;;;;;;5028214;28;20600;-81
2024/01/29 03:46:33;;;;;;;4.67;3.70;;;;;;;;;;5015417;28;20462;-78
2024/01/29 03:49:01;;;;;;;3.13;2.93;;;;;;;;;;5024503;28;20457;-78
2024/01/29 03:51:27;;;;;;;3.03;2.73;;;;;;;;;;5020462;28;20466;-80
2024/01/29 03:53:54;;;;;;;3.50;3.20;;;;;;;;;;5005267;28;20987;-78
2024/01/29 03:56:22;;;;;;;4.53;2.77;;;;;;;;;;5017131;28;20481;-81
2024/01/29 03:58:48;;;;;;;2.83;2.60;;;;;;;;;;5012628;28;20477;-80
2024/01/29 04:01:15;;;;;;;4.37;3.47;;;;;;;;;;5004966;28;20556;-78
2024/01/29 04:03:41;;;;;;;3.80;3.40;;;;;;;;;;5017176;28;20469;-80
2024/01/29 04:06:09;;;;;;;5.10;2.50;;;;;;;;;;5030674;28;20463;-78
2024/01/29 04:08:35;;;;;;;4.23;3.00;;;;;;;;;;5019888;28;20479;-79
2024/01/29 04:11:02;;;;;;;3.97;2.97;;;;;;;;;;5011312;28;20474;-78
2024/01/29 04:13:28;;;;;;;6.63;3.13;;;;;;;;;;5018873;28;20502;-78
2024/01/29 04:15:55;;;;;;;3.50;3.20;;;;;;;;;;5009800;28;20461;-78
2024/01/29 04:18:21;;;;;;;5.37;3.27;;;;;;;;;;5022235;28;20491;-78
2024/01/29 04:20:48;;;;;;;3.63;2.90;;;;;;;;;;5024835;28;20472;-79
2024/01/29 04:23:16;;;;;;;2.70;2.50;;;;;;;;;;5026790;28;20322;-78
2024/01/29 04:25:43;;;;;;;3.67;3.37;;;;;;;;;;5016788;28;20467;-78
2024/01/29 04:28:11;;;;;;;4.00;2.90;;;;;;;;;;5020174;28;21149;-78
2024/01/29 04:30:37;;;;;;;2.73;2.50;;;;;;;;;;5027332;28;20465;-79
2024/01/29 04:33:04;;;;;;;5.67;2.77;;;;;;;;;;5035103;28;20840;-79
2024/01/29 04:35:30;;;;;;;6.23;3.40;;;;;;;;;;5023820;28;20465;-78
2024/01/29 04:37:56;;;;;;;3.17;2.80;;;;;;;;;;5021824;28;21140;-78
2024/01/29 04:40:24;;;;;;;5.13;3.00;;;;;;;;;;5000592;28;20470;-78
2024/01/29 04:42:51;;;;;;;7.10;3.63;;;;;;;;;;5000536;28;21060;-78
2024/01/29 04:45:17;;;;;;;4.50;2.80;;;;;;;;;;5012482;28;20475;-78
2024/01/29 04:47:44;;;;;;;3.73;3.03;;;;;;;;;;5014799;28;20327;-78
2024/01/29 04:50:10;;;;;;;5.73;2.90;;;;;;;;;;5019089;28;20462;-79
2024/01/29 04:52:37;;;;;;;4.67;2.60;;;;;;;;;;5014082;28;20555;-80
2024/01/29 04:55:03;;;;;;;3.57;2.60;;;;;;;;;;5010377;28;20468;-78
2024/01/29 04:57:31;;;;;;;3.87;3.17;;;;;;;;;;5018247;28;20499;-78
2024/01/29 04:59:58;;;;;;;9.40;3.63;;;;;;;;;;5012131;28;20472;-80
2024/01/29 05:02:24;;;;;;;3.10;2.90;;;;;;;;;;5007532;28;20873;-78
2024/01/29 05:04:51;;;;;;;3.67;2.70;;;;;;;;;;5016352;28;20487;-78
2024/01/29 05:07:17;;;;;;;4.30;3.30;;;;;;;;;;4994399;28;20516;-77
2024/01/29 05:09:44;;;;;;;3.60;2.63;;;;;;;;;;5002609;28;20835;-81
2024/01/29 05:12:10;;;;;;;3.10;2.57;;;;;;;;;;4997538;28;20485;-78
2024/01/29 05:14:39;;;;;;;3.40;3.10;;;;;;;;;;5002300;28;20475;-79
2024/01/29 05:17:05;;;;;;;4.57;2.67;;;;;;;;;;5008027;28;20457;-78
2024/01/29 05:19:31;;;;;;;6.50;3.47;;;;;;;;;;5018005;28;20469;-78
2024/01/29 05:21:58;;;;;;;4.40;3.10;;;;;;;;;;5012800;28;20554;-80
2024/01/29 05:24:24;;;;;;;3.90;3.03;;;;;;;;;;5022333;28;20484;-78
2024/01/29 05:26:51;;;;;;;5.20;3.50;;;;;;;;;;5016838;28;20469;-78
2024/01/29 05:29:18;;;;;;;4.63;3.40;;;;;;;;;;4995081;28;20472;-81
2024/01/29 05:31:46;;;;;;;4.07;3.50;;;;;;;;;;5022453;28;20481;-78
2024/01/29 05:34:13;;;;;;;5.60;3.90;;;;;;;;;;5019116;28;20469;-79
2024/01/29 05:36:39;;;;;;;8.60;3.03;;;;;;;;;;5019009;28;20839;-78
2024/01/29 05:39:06;;;;;;;8.07;4.40;;;;;;;;;;5012342;28;20459;-78
2024/01/29 05:41:32;;;;;;;4.20;3.70;;;;;;;;;;5026881;28;20556;-78
2024/01/29 05:44:00;;;;;;;5.73;3.20;;;;;;;;;;5014406;28;20484;-78
2024/01/29 05:46:26;;;;;;;4.63;3.27;;;;;;;;;;5020628;28;20485;-78
2024/01/29 05:48:54;;;;;;;3.63;3.00;;;;;;;;;;5026277;28;20991;-78
2024/01/29 05:51:21;;;;;;;4.10;2.90;;;;;;;;;;5009893;28;20259;-80
2024/01/29 05:53:47;;;;;;;5.13;3.87;;;;;;;;;;5021423;28;20454;-78
2024/01/29 05:56:14;;;;;;;6.80;4.27;;;;;;;;;;5024525;28;21010;-78
2024/01/29 05:58:44;;;;;;;6.20;2.87;;;;;;;;;;5014353;28;20466;-79
2024/01/29 06:01:11;;;;;;;5.23;3.30;;;;;;;;;;5000136;28;20473;-78
2024/01/29 06:03:37;;;;;;;3.90;3.10;;;;;;;;;;5025411;28;20533;-78
2024/01/29 06:06:05;;;;;;;4.40;3.33;;;;;;;;;;5008662;28;20486;-77
2024/01/29 06:08:32;;;;;;;3.20;2.90;;;;;;;;;;5019669;28;20553;-79
2024/01/29 06:10:58;;;;;;;3.88;2.80;;;;;;;;;;5026283;28;20561;-80
2024/01/29 06:13:24;;;;;;;4.07;3.30;;;;;;;;;;5027792;28;20329;-78
2024/01/29 06:15:51;;;;;;;5.47;2.85;;;;;;;;;;5018891;28;20560;-78
2024/01/29 06:18:17;;;;;;;8.80;3.10;;;;;;;;;;5027077;28;20228;-78
2024/01/29 06:20:44;;;;;;;3.42;3.13;;;;;;;;;;4987853;28;20489;-78
2024/01/29 06:23:14;;;;;;;4.13;3.20;;;;;;;;;;5014621;28;20308;-81
2024/01/29 06:25:41;;;;;;;4.60;3.07;;;;;;;;;;4977467;28;20485;-78
2024/01/29 06:28:07;;;;;;;4.53;3.63;;;;;;;;;;5007147;28;20499;-78
2024/01/29 06:30:34;;;;;;;4.93;3.33;;;;;;;;;;5016565;28;20473;-78
2024/01/29 06:33:00;;;;;;;5.43;3.70;;;;;;;;;;5022264;28;22827;-80
2024/01/29 06:35:27;;;;;;;4.80;3.90;;;;;;;;;;5026137;28;20563;-79
2024/01/29 06:37:53;;;;;;;4.50;3.90;;;;;;;;;;4999421;28;20513;-79
2024/01/29 06:40:27;;;;;;;5.17;2.80;;;;;;;;;;5018588;28;20458;-78
2024/01/29 06:42:53;;;;;;;4.50;3.17;;;;;;;;;;5004091;28;20505;-78
2024/01/29 06:45:20;;;;;;;8.47;3.00;;;;;;;;;;5030385;28;20485;-78
2024/01/29 06:47:46;;;;;;;7.00;3.47;;;;;;;;;;5008036;28;20468;-78
2024/01/29 06:50:13;;;;;;;9.30;6.33;;;;;;;;;;5033207;28;20535;-79
2024/01/29 06:52:39;;;;;;;4.13;3.23;;;;;;;;;;5020627;28;20464;-80
2024/01/29 06:55:05;;;;;;;4.57;4.17;;;;;;;;;;5016130;28;20474;-78
2024/01/29 06:57:33;;;;;;;4.32;3.03;;;;;;;;;;5023902;28;20976;-78
2024/01/29 07:00:00;;;;;;;6.30;3.60;;;;;;;;;;5022771;28;20336;-81
2024/01/29 07:02:26;;;;;;;4.77;3.20;;;;;;;;;;5016175;28;20578;-78
2024/01/29 07:04:54;;;;;;;4.93;3.43;;;;;;;;;;5016570;28;20471;-77
2024/01/29 07:07:20;;;;;;;4.13;3.37;;;;;;;;;;5020403;28;20468;-78
2024/01/29 07:09:47;;;;;;;4.60;3.20;;;;;;;;;;5015776;28;20458;-77
2024/01/29 07:12:15;;;;;;;3.73;3.33;;;;;;;;;;5022170;28;20835;-78
2024/01/29 07:14:42;;;;;;;6.50;3.57;;;;;;;;;;5022975;28;20476;-78
2024/01/29 07:17:09;;;;;;;7.03;3.87;;;;;;;;;;5004705;28;20500;-80
2024/01/29 07:19:35;;;;;;;5.30;3.43;;;;;;;;;;5020130;28;20494;-77
2024/01/29 07:22:04;;;;;;;3.63;3.33;;;;;;;;;;5011879;28;20563;-78
2024/01/29 07:24:31;;;;;;;5.03;3.30;;;;;;;;;;4985766;28;20552;-77
2024/01/29 07:26:59;;;;;;;4.37;3.53;;;;;;;;;;4999117;28;20561;-77
2024/01/29 07:29:27;;;;;;;4.17;2.83;;;;;;;;;;4982562;28;20479;-80
2024/01/29 07:31:57;;;;;;;3.47;3.17;;;;;;;;;;4985749;28;20462;-78
2024/01/29 07:34:23;;;;;;;3.30;3.10;;;;;;;;;;5006419;28;20911;-79
2024/01/29 07:36:49;;;;;;;3.43;2.80;;;;;;;;;;5007385;28;20229;-78
2024/01/29 07:39:17;;;;;;;3.47;2.90;;;;;;;;;;5006177;28;20468;-78
2024/01/29 07:41:43;;;;;;;3.67;3.00;;;;;;;;;;4990199;28;20497;-78
2024/01/29 07:44:10;;;;;;;6.50;3.43;;;;;;;;;;4983532;28;20463;-78
2024/01/29 07:46:37;;;;;;;12.70;4.87;;;;;;;;;;4986317;28;20536;-78
2024/01/29 07:49:06;;;;;;;4.47;3.45;;;;;;;;;;5015938;28;20470;-78
2024/01/29 07:51:33;;;;;;;5.47;3.80;;;;;;;;;;5008385;28;20271;-78
2024/01/29 07:54:00;;;;;;;4.37;3.77;;;;;;;;;;5002483;28;20499;-78
2024/01/29 07:56:26;;;;;;;5.97;4.32;;;;;;;;;;5011322;28;22290;-78
2024/01/29 07:58:53;;;;;;;5.03;4.53;;;;;;;;;;5018203;28;20235;-78
2024/01/29 08:01:19;;;;;;;5.50;3.80;;;;;;;;;;5006460;28;20477;-78
2024/01/29 08:03:46;;;;;;;4.32;3.35;;;;;;;;;;5003709;28;20494;-79
2024/01/29 08:06:13;;;;;;;5.03;3.60;;;;;;;;;;4990036;28;20236;-77
2024/01/29 08:08:40;;;;;;;9.13;5.28;;;;;;;;;;5001059;28;20563;-78
2024/01/29 08:11:08;;;;;;;6.47;3.80;;;;;;;;;;4984027;28;20327;-78
2024/01/29 08:13:35;;;;;;;4.30;3.90;;;;;;;;;;4984335;28;20510;-78
2024/01/29 08:16:01;;;;;;;4.05;3.67;;;;;;;;;;4965538;28;20562;-80
2024/01/29 08:18:28;;;;;;;5.23;4.00;;;;;;;;;;5022847;28;20229;-78
2024/01/29 08:20:55;;;;;;;5.10;3.70;;;;;;;;;;5021311;28;20566;-79
2024/01/29 08:23:24;;;;;;;5.73;4.13;;;;;;;;;;5015336;28;20469;-80
2024/01/29 08:25:52;;;;;;;4.50;4.03;;;;;;;;;;5012361;28;20500;-78
2024/01/29 08:28:18;;;;;;;9.23;5.20;;;;;;;;;;5028087;28;20470;-78
2024/01/29 08:30:45;;;;;;;9.90;5.47;;;;;;;;;;5017640;28;20551;-78
2024/01/29 08:33:11;;;;;;;6.60;5.53;;;;;;;;;;5014093;28;21017;-78
2024/01/29 08:35:37;;;;;;;6.45;5.85;;;;;;;;;;5010448;28;20885;-78
2024/01/29 08:38:04;;;;;;;7.03;4.87;;;;;;;;;;5006123;28;20273;-78
2024/01/29 08:40:32;;;;;;;5.43;4.70;;;;;;;;;;4995544;28;20475;-78
2024/01/29 08:42:58;;;;;;;7.60;4.80;;;;;;;;;;5017506;28;20562;-83
2024/01/29 08:45:25;;;;;;;7.97;4.80;;;;;;;;;;5021219;28;20496;-77
2024/01/29 08:47:51;;;;;;;11.55;5.68;;;;;;;;;;4996935;28;20977;-77
2024/01/29 08:50:18;;;;;;;10.03;5.53;;;;;;;;;;5013092;28;20218;-80
2024/01/29 08:52:44;;;;;;;7.10;5.20;;;;;;;;;;5010472;28;20848;-78
2024/01/29 08:55:11;;;;;;;8.00;5.40;;;;;;;;;;5015541;28;20578;-78
2024/01/29 08:57:38;;;;;;;8.47;6.40;;;;;;;;;;4986263;28;20474;-78
2024/01/29 09:00:06;;;;;;;8.80;5.33;;;;;;;;;;4996002;28;20576;-78
2024/01/29 09:02:33;;;;;;;8.00;5.70;;;;;;;;;;4995520;28;20493;-78
2024/01/29 09:05:00;;;;;;;6.33;5.37;;;;;;;;;;4993470;28;20487;-78
2024/01/29 09:07:26;;;;;;;11.02;5.45;;;;;;;;;;5000283;28;20578;-78
2024/01/29 09:09:52;;;;;;;6.70;5.13;;;;;;;;;;4977603;28;20262;-79
2024/01/29 09:12:19;;;;;;;7.13;5.50;;;;;;;;;;5000246;28;20473;-78
2024/01/29 09:14:48;;;;;;;5.83;4.73;;;;;;;;;;5000615;28;20870;-78
2024/01/29 09:17:15;;;;;;;6.37;4.80;;;;;;;;;;5000211;28;20569;-79
2024/01/29 09:19:45;;;;;;;6.43;5.30;;;;;;;;;;4994798;28;20475;-78
2024/01/29 09:22:11;;;;;;;6.87;5.37;;;;;;;;;;5000902;28;20227;-78
2024/01/29 09:24:37;;;;;;;7.10;4.40;;;;;;;;;;4992730;28;20471;-80
2024/01/29 09:27:04;;;;;;;7.05;4.97;;;;;;;;;;5000688;28;20474;-80
2024/01/29 09:29:30;;;;;;;6.43;4.70;;;;;;;;;;4994295;28;20692;-78
2024/01/29 09:31:58;;;;;;;5.33;4.40;;;;;;;;;;5024244;28;20473;-78
2024/01/29 09:34:25;;;;;;;6.93;6.23;;;;;;;;;;5019212;28;20497;-78
2024/01/29 09:36:51;;;;;;;6.00;5.00;;;;;;;;;;4981091;28;20539;-78
2024/01/29 09:39:18;;;;;;;7.60;5.83;;;;;;;;;;5022792;28;20488;-78
2024/01/29 09:41:46;;;;;;;5.68;5.05;;;;;;;;;;5019475;28;20660;-79
2024/01/29 09:44:13;;;;;;;9.30;5.10;;;;;;;;;;5014951;28;20223;-78
2024/01/29 09:46:41;;;;;;;5.67;4.13;;;;;;;;;;5027895;28;20551;-78
2024/01/29 09:49:09;;;;;;;9.27;4.40;;;;;;;;;;5011290;28;20493;-79
2024/01/29 09:51:35;;;;;;;7.25;4.97;;;;;;;;;;4999452;28;20984;-78
2024/01/29 09:54:03;;;;;;;7.90;4.85;;;;;;;;;;5023337;28;20238;-78
2024/01/29 09:56:29;;;;;;;9.40;5.17;;;;;;;;;;5020317;28;20214;-78
2024/01/29 09:58:56;;;;;;;7.57;4.97;;;;;;;;;;5021860;28;20452;-78
2024/01/29 10:01:23;;;;;;;6.72;4.00;;;;;;;;;;5022360;28;20488;-80
2024/01/29 10:03:49;;;;;;;4.80;4.37;;;;;;;;;;4981580;28;20477;-78
2024/01/29 10:06:17;;;;;;;6.37;4.67;;;;;;;;;;5005610;28;20878;-81
2024/01/29 10:08:44;;;;;;;6.10;4.60;;;;;;;;;;5001241;28;20455;-79
2024/01/29 10:11:11;;;;;;;5.67;4.80;;;;;;;;;;5008233;28;20486;-78
2024/01/29 10:13:38;;;;;;;5.00;4.50;;;;;;;;;;5001065;28;20468;-78
2024/01/29 10:16:05;;;;;;;5.43;4.90;;;;;;;;;;4986700;28;20956;-78
2024/01/29 10:18:31;;;;;;;5.40;4.77;;;;;;;;;;4996257;28;20478;-78
2024/01/29 10:21:02;;;;;;;8.37;5.40;;;;;;;;;;4987622;28;20463;-78
2024/01/29 10:23:30;;;;;;;8.60;4.93;;;;;;;;;;4995239;28;20471;-78
2024/01/29 10:25:56;;;;;;;6.30;5.27;;;;;;;;;;5005693;28;20469;-83
2024/01/29 10:28:23;;;;;;;5.03;4.53;;;;;;;;;;4977220;28;20855;-80
2024/01/29 10:30:50;;;;;;;6.60;4.63;;;;;;;;;;4986630;28;20860;-78
2024/01/29 10:33:17;;;;;;;8.10;5.40;;;;;;;;;;4990172;28;20562;-78
2024/01/29 10:35:43;;;;;;;6.00;5.40;;;;;;;;;;4984850;28;20488;-78
2024/01/29 10:38:13;;;;;;;6.43;5.80;;;;;;;;;;4991788;28;20471;-78
2024/01/29 10:40:41;;;;;;;6.40;5.80;;;;;;;;;;4983755;28;20463;-78
2024/01/29 10:43:11;;;;;;;6.97;4.83;;;;;;;;;;5004674;28;20550;-82
2024/01/29 10:45:37;;;;;;;6.10;5.50;;;;;;;;;;4986438;28;20468;-78
2024/01/29 10:48:07;;;;;;;5.73;4.90;;;;;;;;;;5010143;28;20523;-80
2024/01/29 10:50:34;;;;;;;5.00;4.60;;;;;;;;;;4987767;28;20957;-78
2024/01/29 10:53:01;;;;;;;5.73;4.80;;;;;;;;;;4981052;28;20470;-78
2024/01/29 10:55:30;;;;;;;7.13;4.67;;;;;;;;;;5021059;28;20463;-78
2024/01/29 10:58:00;;;;;;;8.57;5.37;;;;;;;;;;4986765;28;20484;-78
2024/01/29 11:00:27;;;;;;;6.60;5.00;;;;;;;;;;5005783;28;20481;-81
2024/01/29 11:02:55;;;;;;;6.60;5.57;;;;;;;;;;4979273;28;20242;-78
2024/01/29 11:05:22;;;;;;;7.77;4.77;;;;;;;;;;5004624;28;20469;-79
2024/01/29 11:07:49;;;;;;;6.53;5.93;;;;;;;;;;4981376;28;20490;-78
2024/01/29 11:10:18;;;;;;;7.50;5.73;;;;;;;;;;4993700;28;20473;-78
2024/01/29 11:12:44;;;;;;;5.80;5.03;;;;;;;;;;5001068;28;20550;-85
2024/01/29 11:15:12;;;;;;;7.10;6.40;;;;;;;;;;5020090;28;20557;-80
2024/01/29 11:17:40;;;;;;;7.37;5.90;;;;;;;;;;4999204;28;20561;-80
2024/01/29 11:20:10;;;;;;;10.03;6.90;;;;;;;;;;5002648;28;20464;-78
2024/01/29 11:22:37;;;;;;;9.67;7.13;;;;;;;;;;4995051;28;20809;-78
2024/01/29 11:25:08;;;;;;;9.57;6.60;;;;;;;;;;5000565;28;20485;-78
2024/01/29 11:27:37;;;;;;;7.30;5.97;;;;;;;;;;4987871;28;20506;-78
2024/01/29 11:30:17;;;;;;;10.60;6.90;;;;;;;;;;4996501;28;20501;-78
2024/01/29 11:32:43;;;;;;;10.90;6.93;;;;;;;;;;4994092;28;20468;-80
2024/01/29 11:35:14;;;;;;;10.30;7.20;;;;;;;;;;4996208;28;20545;-78
2024/01/29 11:37:42;;;;;;;12.97;7.60;;;;;;;;;;4993452;28;20465;-78
2024/01/29 11:40:27;;;;;;;13.37;7.50;;;;;;;;;;4988809;28;20465;-80
2024/01/29 11:42:53;;;;;;;11.03;7.83;;;;;;;;;;4991689;28;20480;-78
2024/01/29 11:45:21;;;;;;;10.93;7.83;;;;;;;;;;4985700;28;20497;-78
2024/01/29 11:47:48;;;;;;;9.87;7.90;;;;;;;;;;5000568;28;20486;-79
2024/01/29 11:50:16;;;;;;;9.33;7.50;;;;;;;;;;5007591;28;20563;-78
2024/01/29 11:52:43;;;;;;;8.57;7.77;;;;;;;;;;4977119;28;20480;-79
2024/01/29 11:55:11;;;;;;;12.13;7.30;;;;;;;;;;5018497;28;20483;-79
2024/01/29 11:57:37;;;;;;;13.00;7.90;;;;;;;;;;4994880;28;20474;-79
2024/01/29 12:00:07;;;;;;;10.40;8.30;;;;;;;;;;5004453;28;20571;-78
2024/01/29 12:02:35;;;;;;;12.70;8.40;;;;;;;;;;4998367;28;20478;-78
2024/01/29 12:05:02;;;;;;;11.83;7.17;;;;;;;;;;4999880;28;20470;-78
2024/01/29 12:07:28;;;;;;;8.70;7.20;;;;;;;;;;4977122;28;20994;-78
2024/01/29 12:09:57;;;;;;;9.97;7.70;;;;;;;;;;4999878;28;20839;-79
2024/01/29 12:12:24;;;;;;;11.70;7.20;;;;;;;;;;5004725;28;20548;-78
2024/01/29 12:14:51;;;;;;;11.80;7.10;;;;;;;;;;5015587;28;20970;-78
2024/01/29 12:17:18;;;;;;;12.03;7.60;;;;;;;;;;5035463;28;20563;-77
2024/01/29 12:19:51;;;;;;;8.23;7.27;;;;;;;;;;5008606;28;20479;-78
2024/01/29 12:22:19;;;;;;;11.87;8.47;;;;;;;;;;5029032;28;20910;-78
2024/01/29 12:24:49;;;;;;;14.00;7.87;;;;;;;;;;5029037;28;20505;-78
2024/01/29 12:27:15;;;;;;;12.13;8.03;;;;;;;;;;4995834;28;20492;-78
2024/01/29 12:29:43;;;;;;;12.37;8.13;;;;;;;;;;4995508;28;20508;-80
2024/01/29 12:32:11;;;;;;;19.15;8.88;;;;;;;;;;4996775;28;21022;-79
2024/01/29 12:34:42;;;;;;;16.20;8.67;;;;;;;;;;4985929;28;20231;-79
2024/01/29 12:37:17;;;;;;;12.10;8.00;;;;;;;;;;4997506;28;20495;-79
2024/01/29 12:39:44;;;;;;;8.80;7.90;;;;;;;;;;4988261;28;20566;-79
2024/01/29 12:42:14;;;;;;;10.70;8.30;;;;;;;;;;5003937;28;20540;-78
2024/01/29 12:44:40;;;;;;;11.40;9.33;;;;;;;;;;5008505;28;20481;-79
2024/01/29 12:47:12;;;;;;;9.60;8.10;;;;;;;;;;5010589;28;20485;-79
2024/01/29 12:49:40;;;;;;;12.63;8.13;;;;;;;;;;5003179;28;20470;-79
2024/01/29 12:52:09;;;;;;;11.30;8.30;;;;;;;;;;5006389;28;20465;-79
2024/01/29 12:54:37;;;;;;;15.00;9.17;;;;;;;;;;5004181;28;20474;-78
2024/01/29 12:57:03;;;;;;;10.80;8.70;;;;;;;;;;5008737;28;21001;-79
2024/01/29 12:59:30;;;;;;;13.25;7.80;;;;;;;;;;5006592;28;21024;-79
2024/01/29 13:01:57;;;;;;;9.30;8.30;;;;;;;;;;5011797;28;20730;-79
2024/01/29 13:04:23;;;;;;;12.97;9.03;;;;;;;;;;5015182;28;20237;-78
2024/01/29 13:06:50;;;;;;;13.10;8.40;;;;;;;;;;4998029;28;20466;-81
2024/01/29 13:09:17;;;;;;;11.60;8.40;;;;;;;;;;5009170;28;20469;-79
2024/01/29 13:11:46;;;;;;;10.60;8.83;;;;;;;;;;5013809;28;20477;-80
2024/01/29 13:14:12;;;;;;;10.60;7.97;;;;;;;;;;5000587;28;20504;-79
2024/01/29 13:16:39;;;;;;;11.80;9.00;;;;;;;;;;5018786;28;20465;-79
2024/01/29 13:19:07;;;;;;;10.50;8.30;;;;;;;;;;5017414;28;20970;-79
2024/01/29 13:21:34;;;;;;;9.97;8.63;;;;;;;;;;5010954;28;20471;-79
2024/01/29 13:24:01;;;;;;;13.13;9.20;;;;;;;;;;4984605;28;20865;-79
2024/01/29 13:26:29;;;;;;;13.13;9.27;;;;;;;;;;4992673;28;21000;-79
2024/01/29 13:28:57;;;;;;;12.80;9.30;;;;;;;;;;5005629;28;20556;-79
2024/01/29 13:31:23;;;;;;;14.13;9.33;;;;;;;;;;5004135;28;20583;-80
2024/01/29 13:33:50;;;;;;;10.83;8.33;;;;;;;;;;5009686;28;20917;-81
2024/01/29 13:36:17;;;;;;;14.10;9.87;;;;;;;;;;5016684;28;20531;-77
2024/01/29 13:38:43;;;;;;;12.70;9.33;;;;;;;;;;5007358;28;20568;-79
2024/01/29 13:41:10;;;;;;;12.63;9.47;;;;;;;;;;5013927;28;20594;-79
2024/01/29 13:43:37;;;;;;;10.97;9.00;;;;;;;;;;4997136;28;20581;-80
2024/01/29 13:46:05;;;;;;;10.67;8.80;;;;;;;;;;5014118;28;20492;-79
2024/01/29 13:48:31;;;;;;;14.40;9.00;;;;;;;;;;5010137;28;20572;-79
2024/01/29 13:50:58;;;;;;;13.90;9.57;;;;;;;;;;5014003;28;20562;-80
2024/01/29 13:53:26;;;;;;;13.00;9.40;;;;;;;;;;4999079;28;20470;-78
2024/01/29 13:55:53;;;;;;;11.50;9.43;;;;;;;;;;4987335;28;20918;-81
2024/01/29 13:58:19;;;;;;;16.87;9.30;;;;;;;;;;5000331;28;21053;-79
2024/01/29 14:00:46;;;;;;;9.80;8.90;;;;;;;;;;5001269;28;20512;-79
2024/01/29 14:03:14;;;;;;;11.77;9.30;;;;;;;;;;5015748;28;20476;-80
2024/01/29 14:05:40;;;;;;;14.57;9.17;;;;;;;;;;5012508;28;20867;-79
2024/01/29 14:08:08;;;;;;;14.10;8.37;;;;;;;;;;4989316;28;20564;-80
2024/01/29 14:10:35;;;;;;;13.33;9.10;;;;;;;;;;5014046;28;20549;-81
2024/01/29 14:13:03;;;;;;;16.73;10.20;;;;;;;;;;5016054;28;20468;-79
2024/01/29 14:15:29;;;;;;;16.10;10.60;;;;;;;;;;5018362;28;20496;-79
2024/01/29 14:17:56;;;;;;;12.05;9.85;;;;;;;;;;5002899;28;20503;-79
2024/01/29 14:20:24;;;;;;;11.80;10.57;;;;;;;;;;5019458;28;20241;-79
2024/01/29 14:22:56;;;;;;;12.13;8.57;;;;;;;;;;4999625;28;20479;-79
2024/01/29 14:25:23;;;;;;;11.37;8.40;;;;;;;;;;4984353;28;20510;-80
2024/01/29 14:27:49;;;;;;;11.03;9.30;;;;;;;;;;5009264;28;20572;-80
2024/01/29 14:30:15;;;;;;;11.30;9.13;;;;;;;;;;4997660;28;20560;-79
2024/01/29 14:32:42;;;;;;;10.98;8.75;;;;;;;;;;5007929;28;20464;-80
2024/01/29 14:35:10;;;;;;;11.93;9.37;;;;;;;;;;5014827;28;20226;-81
2024/01/29 14:37:41;;;;;;;11.85;9.10;;;;;;;;;;5005905;28;20467;-79
2024/01/29 14:40:08;;;;;;;12.87;10.60;;;;;;;;;;5023599;28;20260;-82